createdAt,value
2022-09-12T00:02:53.313Z,9.4
2022-09-12T00:05:53.361Z,9.7
2022-09-12T00:08:53.342Z,8.6
2022-09-12T00:11:53.351Z,8.2
2022-09-12T00:14:53.354Z,7.9
2022-09-12T00:17:53.361Z,7.8
2022-09-12T00:20:53.381Z,7.9
2022-09-12T00:23:53.410Z,7.5
2022-09-12T00:26:53.392Z,8
2022-09-12T00:29:53.395Z,8.6
2022-09-12T00:32:53.469Z,8.7
2022-09-12T00:35:53.428Z,8.3
2022-09-12T00:38:53.447Z,8.1
2022-09-12T00:41:53.469Z,7.6
2022-09-12T00:44:53.456Z,7.4
2022-09-12T00:47:53.456Z,7.7
2022-09-12T00:50:53.490Z,7.8
2022-09-12T00:53:53.480Z,8.3
2022-09-12T00:56:53.479Z,7.8
2022-09-12T00:59:53.518Z,7.2
2022-09-12T01:02:53.496Z,8.2
2022-09-12T01:05:53.517Z,8.1
2022-09-12T01:08:53.526Z,8.2
2022-09-12T01:11:53.524Z,7.7
2022-09-12T01:14:53.543Z,7.4
2022-09-12T01:17:53.580Z,7.5
2022-09-12T01:20:53.573Z,7.2
2022-09-12T01:23:53.578Z,7.3
2022-09-12T01:26:53.583Z,6.7
2022-09-12T01:29:53.588Z,7.1
2022-09-12T01:32:53.598Z,7.4
2022-09-12T01:35:53.640Z,7.8
2022-09-12T01:38:53.619Z,7.8
2022-09-12T01:41:53.615Z,7.6
2022-09-12T01:44:53.639Z,6.8
2022-09-12T01:47:53.635Z,7
2022-09-12T01:50:53.657Z,7.3
2022-09-12T01:53:53.709Z,7.8
2022-09-12T01:56:53.667Z,7.7
2022-09-12T01:59:53.676Z,8.1
2022-09-12T02:02:53.691Z,8
2022-09-12T02:05:53.716Z,7.6
2022-09-12T02:08:53.726Z,7.8
2022-09-12T02:11:53.738Z,8.7
2022-09-12T02:14:53.732Z,9.2
2022-09-12T02:17:53.735Z,8.4
2022-09-12T02:20:53.750Z,8.2
2022-09-12T02:23:53.753Z,8.3
2022-09-12T02:26:53.750Z,7.9
2022-09-12T02:29:53.763Z,8.8
2022-09-12T02:32:53.745Z,9.4
2022-09-12T02:35:53.756Z,9.3
2022-09-12T02:38:53.759Z,8.8
2022-09-12T02:41:53.756Z,8.7
2022-09-12T02:44:53.750Z,8.9
2022-09-12T02:47:53.780Z,8.3
2022-09-12T02:50:53.769Z,8.5
2022-09-12T02:53:53.769Z,7.8
2022-09-12T02:56:53.757Z,7.5
2022-09-12T02:59:53.762Z,7.7
2022-09-12T03:02:53.773Z,8.6
2022-09-12T03:05:53.802Z,8.1
2022-09-12T03:08:53.793Z,7.7
2022-09-12T03:11:53.773Z,7.3
2022-09-12T03:14:53.773Z,7.5
2022-09-12T03:17:53.779Z,7.7
2022-09-12T03:20:53.786Z,7
2022-09-12T03:23:53.810Z,6.9
2022-09-12T03:26:53.785Z,6.1
2022-09-12T03:29:53.776Z,5.7
2022-09-12T03:32:53.781Z,5.6
2022-09-12T03:35:53.791Z,5.8
2022-09-12T03:38:53.800Z,5.2
2022-09-12T03:41:53.808Z,5.1
2022-09-12T03:44:53.781Z,5
2022-09-12T03:47:53.788Z,4.7
2022-09-12T03:50:53.819Z,5
2022-09-12T03:53:53.799Z,4.9
2022-09-12T03:56:53.787Z,5
2022-09-12T03:59:53.810Z,4.8
2022-09-12T04:02:53.791Z,4.5
2022-09-12T04:05:53.808Z,5.4
2022-09-12T04:08:53.808Z,5.4
2022-09-12T04:11:53.794Z,5.1
2022-09-12T04:14:53.797Z,4.5
2022-09-12T04:17:53.826Z,4.3
2022-09-12T04:20:53.812Z,3.7
2022-09-12T04:23:53.829Z,3.6
2022-09-12T04:26:53.804Z,3.7
2022-09-12T04:29:53.809Z,3.3
2022-09-12T04:32:53.804Z,3.2
2022-09-12T04:35:53.846Z,3.3
2022-09-12T04:38:53.819Z,3
2022-09-12T04:41:53.813Z,3.1
2022-09-12T04:44:53.815Z,3.8
2022-09-12T04:47:53.816Z,6.6
2022-09-12T04:50:53.827Z,6.9
2022-09-12T04:53:53.845Z,6.7
2022-09-12T04:56:53.819Z,6.3
2022-09-12T04:59:53.823Z,6.8
2022-09-12T05:02:53.824Z,6.9
2022-09-12T05:05:56.409Z,7
2022-09-12T05:08:53.834Z,6.6
2022-09-12T05:12:09.183Z,6.1
2022-09-12T05:14:53.832Z,6.3
2022-09-12T05:17:53.827Z,6
2022-09-12T05:20:53.841Z,6.1
2022-09-12T05:23:53.839Z,5.7
2022-09-12T05:26:53.840Z,6
2022-09-12T05:29:53.870Z,7.4
2022-09-12T05:32:53.848Z,7.5
2022-09-12T05:35:53.856Z,7
2022-09-12T05:38:53.850Z,7.4
2022-09-12T05:41:53.841Z,7.5
2022-09-12T05:44:53.853Z,7.3
2022-09-12T05:47:53.876Z,7.3
2022-09-12T05:50:53.859Z,8.3
2022-09-12T05:53:53.850Z,8.9
2022-09-12T05:56:53.857Z,9.1
2022-09-12T05:59:53.857Z,9.6
2022-09-12T06:02:53.864Z,9.5
2022-09-12T06:05:53.915Z,9.6
2022-09-12T06:08:53.864Z,9.2
2022-09-12T06:11:53.870Z,9.1
2022-09-12T06:14:53.867Z,8.3
2022-09-12T06:17:53.877Z,7.6
2022-09-12T06:20:53.880Z,7.1
2022-09-12T06:23:53.896Z,7
2022-09-12T06:26:53.879Z,6.8
2022-09-12T06:29:53.883Z,6.7
2022-09-12T06:32:53.881Z,8.1
2022-09-12T06:35:53.912Z,8.1
2022-09-12T06:38:53.891Z,7
2022-09-12T06:41:53.922Z,7.1
2022-09-12T06:44:53.889Z,8.3
2022-09-12T06:47:53.897Z,8.3
2022-09-12T06:50:53.913Z,8.9
2022-09-12T06:53:53.891Z,7.8
2022-09-12T06:56:53.905Z,7.4
2022-09-12T06:59:53.929Z,7.7
2022-09-12T07:02:53.909Z,8.3
2022-09-12T07:05:53.920Z,8.3
2022-09-12T07:08:53.914Z,8.2
2022-09-12T07:11:53.926Z,8.2
2022-09-12T07:14:53.929Z,8.1
2022-09-12T07:17:53.957Z,8.2
2022-09-12T07:20:53.937Z,8.5
2022-09-12T07:23:53.939Z,7.9
2022-09-12T07:26:53.933Z,7.5
2022-09-12T07:29:53.941Z,8.2
2022-09-12T07:32:53.946Z,7.3
2022-09-12T07:35:53.990Z,7.6
2022-09-12T07:38:57.185Z,7.2
2022-09-12T07:41:53.953Z,7.6
2022-09-12T07:44:53.959Z,7.5
2022-09-12T07:47:53.957Z,7.1
2022-09-12T07:50:53.978Z,7
2022-09-12T07:53:53.989Z,7.5
2022-09-12T07:56:53.971Z,7.3
2022-09-12T07:59:53.982Z,7.4
2022-09-12T08:02:54.027Z,7.8
2022-09-12T08:05:53.990Z,8.4
2022-09-12T08:08:53.979Z,9.2
2022-09-12T08:11:54.030Z,9
2022-09-12T08:14:53.983Z,8.8
2022-09-12T08:17:53.980Z,9.1
2022-09-12T08:20:53.989Z,8.9
2022-09-12T08:23:53.974Z,8
2022-09-12T08:26:53.981Z,8.3
2022-09-12T08:29:54.014Z,8.1
2022-09-12T08:32:53.976Z,8.9
2022-09-12T08:35:54.143Z,8.2
2022-09-12T08:38:57.413Z,8.2
2022-09-12T08:41:53.999Z,7.8
2022-09-12T08:44:54.023Z,7.8
2022-09-12T08:47:54.036Z,7.7
2022-09-12T08:50:54.017Z,7.1
2022-09-12T08:53:54.010Z,7.4
2022-09-12T08:56:54.021Z,7.1
2022-09-12T08:59:54.021Z,6.3
2022-09-12T09:02:54.112Z,6.6
2022-09-12T09:05:54.047Z,6.6
2022-09-12T09:08:54.029Z,6.2
2022-09-12T09:11:54.043Z,6.8
2022-09-12T09:14:54.039Z,6.1
2022-09-12T09:17:54.042Z,5.8
2022-09-12T09:20:54.050Z,5.9
2022-09-12T09:23:54.080Z,5.8
2022-09-12T09:26:54.051Z,6.1
2022-09-12T09:29:54.107Z,5.3
2022-09-12T09:32:54.059Z,5
2022-09-12T09:35:54.085Z,5.3
2022-09-12T09:38:54.309Z,5.6
2022-09-12T09:41:54.105Z,4.9
2022-09-12T09:44:54.082Z,4.7
2022-09-12T09:47:54.076Z,4.5
2022-09-12T09:50:54.097Z,4.3
2022-09-12T09:53:54.089Z,5.2
2022-09-12T09:56:54.091Z,4.4
2022-09-12T09:59:54.128Z,4.4
2022-09-12T10:02:54.122Z,3.3
2022-09-12T10:05:54.122Z,3.7
2022-09-12T10:08:54.119Z,3.9
2022-09-12T10:11:54.119Z,3.8
2022-09-12T10:14:54.126Z,3.7
2022-09-12T10:17:54.153Z,3.9
2022-09-12T10:20:54.154Z,3.8
2022-09-12T10:23:54.153Z,3.4
2022-09-12T10:26:56.690Z,3.5
2022-09-12T10:29:54.157Z,3.4
2022-09-12T10:32:54.208Z,3
2022-09-12T10:35:54.213Z,3
2022-09-12T10:38:54.167Z,3.4
2022-09-12T10:41:54.175Z,3.5
2022-09-12T10:44:54.179Z,3.2
2022-09-12T10:47:54.178Z,2.8
2022-09-12T10:50:54.202Z,2.4
2022-09-12T10:53:54.214Z,2.2
2022-09-12T10:56:54.194Z,2.2
2022-09-12T10:59:54.200Z,2.2
2022-09-12T11:02:54.252Z,2.2
2022-09-12T11:05:54.225Z,2
2022-09-12T11:08:54.222Z,2
2022-09-12T11:11:54.247Z,1.9
2022-09-12T11:14:54.226Z,2
2022-09-12T11:17:54.234Z,2.3
2022-09-12T11:20:54.249Z,2.1
2022-09-12T11:23:54.245Z,1.9
2022-09-12T11:26:54.251Z,1.7
2022-09-12T11:29:54.304Z,2
2022-09-12T11:32:54.261Z,1.8
2022-09-12T11:35:55.559Z,1.8
2022-09-12T11:38:54.276Z,2.1
2022-09-12T11:41:54.280Z,2
2022-09-12T11:44:54.285Z,2
2022-09-12T11:47:54.324Z,1.9
2022-09-12T11:50:54.312Z,2
2022-09-12T11:53:54.305Z,2.2
2022-09-12T11:56:54.309Z,2.2
2022-09-12T11:59:54.317Z,2.1
2022-09-12T12:02:54.324Z,1.9
2022-09-12T12:05:54.373Z,2
2022-09-12T12:08:54.336Z,2
2022-09-12T12:11:54.350Z,2
2022-09-12T12:14:54.350Z,2.1
2022-09-12T12:17:54.359Z,2.1
2022-09-12T12:20:54.383Z,2.2
2022-09-12T12:23:54.397Z,2.1
2022-09-12T12:26:54.400Z,2.1
2022-09-12T12:29:54.383Z,2
2022-09-12T12:32:54.430Z,1.9
2022-09-12T12:35:54.416Z,2.2
2022-09-12T12:38:54.419Z,2.3
2022-09-12T12:41:54.441Z,2.5
2022-09-12T12:44:54.420Z,2.2
2022-09-12T12:47:54.425Z,2
2022-09-12T12:50:54.444Z,2
2022-09-12T12:53:54.436Z,2.3
2022-09-12T12:56:54.444Z,2.1
2022-09-12T12:59:54.479Z,2
2022-09-12T13:02:54.494Z,2.1
2022-09-12T13:05:54.475Z,2.1
2022-09-12T13:08:54.471Z,2
2022-09-12T13:11:54.478Z,2
2022-09-12T13:14:54.493Z,1.8
2022-09-12T13:17:54.521Z,1.8
2022-09-12T13:20:54.518Z,2
2022-09-12T13:23:54.509Z,1.8
2022-09-12T13:26:54.516Z,2
2022-09-12T13:29:54.527Z,2
2022-09-12T13:32:54.535Z,1.8
2022-09-12T13:35:54.583Z,2
2022-09-12T13:38:54.548Z,2
2022-09-12T13:41:54.557Z,1.9
2022-09-12T13:44:54.563Z,1.9
2022-09-12T13:47:58.466Z,1.8
2022-09-12T13:50:54.607Z,1.9
2022-09-12T13:53:54.609Z,1.9
2022-09-12T13:56:54.603Z,1.9
2022-09-12T13:59:54.612Z,1.9
2022-09-12T14:02:54.696Z,1.6
2022-09-12T14:05:54.639Z,1.8
2022-09-12T14:08:54.629Z,2
2022-09-12T14:11:54.666Z,1.8
2022-09-12T14:14:54.651Z,2
2022-09-12T14:17:54.657Z,2
2022-09-12T14:20:54.671Z,2
2022-09-12T14:23:54.671Z,1.8
2022-09-12T14:26:54.674Z,1.9
2022-09-12T14:29:54.720Z,1.8
2022-09-12T14:32:54.688Z,1.8
2022-09-12T14:35:54.710Z,1.9
2022-09-12T14:38:54.711Z,1.9
2022-09-12T14:41:54.717Z,1.9
2022-09-12T14:44:54.721Z,2
2022-09-12T14:47:54.759Z,1.7
2022-09-12T14:50:54.753Z,1.7
2022-09-12T14:53:54.743Z,1.7
2022-09-12T14:56:54.750Z,1.6
2022-09-12T14:59:54.761Z,1.9
2022-09-12T15:02:54.762Z,1.7
2022-09-12T15:05:54.805Z,1.8
2022-09-12T15:08:54.776Z,1.7
2022-09-12T15:11:54.784Z,1.6
2022-09-12T15:14:54.788Z,1.7
2022-09-12T15:17:54.795Z,1.8
2022-09-12T15:20:54.814Z,1.7
2022-09-12T15:23:54.828Z,1.6
2022-09-12T15:26:54.812Z,1.9
2022-09-12T15:29:54.817Z,1.6
2022-09-12T15:32:54.825Z,1.6
2022-09-12T15:35:54.838Z,1.7
2022-09-12T15:38:54.834Z,1.7
2022-09-12T15:41:54.867Z,1.6
2022-09-12T15:44:55.626Z,1.7
2022-09-12T15:47:54.851Z,1.7
2022-09-12T15:50:54.870Z,1.7
2022-09-12T15:53:54.863Z,1.6
2022-09-12T15:56:54.872Z,1.7
2022-09-12T15:59:54.911Z,1.9
2022-09-12T16:02:54.916Z,1.9
2022-09-12T16:05:54.912Z,1.9
2022-09-12T16:08:54.911Z,1.7
2022-09-12T16:11:54.913Z,1.9
2022-09-12T16:14:54.921Z,2
2022-09-12T16:17:55.047Z,1.9
2022-09-12T16:20:54.967Z,1.9
2022-09-12T16:23:54.944Z,1.9
2022-09-12T16:26:57.928Z,1.9
2022-09-12T16:29:54.955Z,2.1
2022-09-12T16:32:54.965Z,2.3
2022-09-12T16:35:54.992Z,1.9
2022-09-12T16:38:54.970Z,2.2
2022-09-12T16:41:54.984Z,2.1
2022-09-12T16:44:54.997Z,2
2022-09-12T16:47:55.005Z,1.9
2022-09-12T16:50:55.001Z,2.1
2022-09-12T16:53:55.038Z,2.2
2022-09-12T16:56:55.020Z,2.2
2022-09-12T16:59:55.035Z,2
2022-09-12T17:02:55.129Z,2.1
2022-09-12T17:05:55.052Z,2.1
2022-09-12T17:08:55.050Z,2.1
2022-09-12T17:11:55.093Z,2.1
2022-09-12T17:14:55.080Z,2
2022-09-12T17:17:55.081Z,2.2
2022-09-12T17:20:55.099Z,2.3
2022-09-12T17:23:55.101Z,2.4
2022-09-12T17:26:55.107Z,2.1
2022-09-12T17:29:55.209Z,2.4
2022-09-12T17:32:55.131Z,2.4
2022-09-12T17:35:55.132Z,2.5
2022-09-12T17:38:55.141Z,2.6
2022-09-12T17:41:55.163Z,2.4
2022-09-12T17:44:55.158Z,2.4
2022-09-12T17:47:55.193Z,2.5
2022-09-12T17:50:55.183Z,2.6
2022-09-12T17:53:55.187Z,2.6
2022-09-12T17:56:55.201Z,2.9
2022-09-12T17:59:55.210Z,2.8
2022-09-12T18:02:55.286Z,2.6
2022-09-12T18:05:55.262Z,2.5
2022-09-12T18:08:55.251Z,2.8
2022-09-12T18:11:55.262Z,2.9
2022-09-12T18:14:55.315Z,3.1
2022-09-12T18:17:55.283Z,3
2022-09-12T18:20:55.296Z,3
2022-09-12T18:23:55.415Z,3.1
2022-09-12T18:26:55.301Z,3
2022-09-12T18:30:17.473Z,3
2022-09-12T18:32:55.320Z,3.2
2022-09-12T18:35:55.331Z,3.1
2022-09-12T18:38:55.342Z,3.4
2022-09-12T18:41:55.463Z,3.4
2022-09-12T18:44:55.365Z,3.2
2022-09-12T18:47:55.376Z,3.3
2022-09-12T18:50:55.396Z,3.4
2022-09-12T18:53:55.403Z,3.2
2022-09-12T18:56:55.414Z,3.4
2022-09-12T18:59:55.456Z,3.3
2022-09-12T19:02:55.444Z,3.6
2022-09-12T19:05:55.462Z,3.6
2022-09-12T19:08:55.470Z,3.8
2022-09-12T19:11:55.477Z,3.7
2022-09-12T19:14:55.479Z,3.5
2022-09-12T19:17:55.519Z,3.7
2022-09-12T19:20:55.506Z,3.6
2022-09-12T19:23:55.512Z,3.9
2022-09-12T19:26:55.523Z,4
2022-09-12T19:29:55.532Z,3.7
2022-09-12T19:32:55.546Z,3.5
2022-09-12T19:35:55.578Z,3.8
2022-09-12T19:38:55.563Z,3.8
2022-09-12T19:41:55.584Z,3.7
2022-09-12T19:44:55.584Z,3.9
2022-09-12T19:47:55.598Z,3.9
2022-09-12T19:50:55.606Z,4
2022-09-12T19:53:55.654Z,4.1
2022-09-12T19:56:55.632Z,4.1
2022-09-12T19:59:55.648Z,4
2022-09-12T20:02:55.652Z,4.1
2022-09-12T20:05:55.668Z,4.4
2022-09-12T20:08:55.673Z,6.1
2022-09-12T20:11:55.715Z,6.6
2022-09-12T20:14:55.700Z,16.3
2022-09-12T20:17:55.710Z,15.5
2022-09-12T20:20:55.719Z,15.9
2022-09-12T20:23:55.729Z,9.3
2022-09-12T20:26:55.742Z,5.6
2022-09-12T20:29:55.857Z,5.8
2022-09-12T20:32:55.763Z,4.9
2022-09-12T20:35:55.771Z,4.8
2022-09-12T20:38:55.961Z,6.4
2022-09-12T20:41:55.790Z,5.1
2022-09-12T20:44:55.808Z,5.1
2022-09-12T20:47:55.926Z,5.5
2022-09-12T20:50:55.835Z,5
2022-09-12T20:53:55.844Z,4.3
2022-09-12T20:56:55.854Z,4.7
2022-09-12T20:59:55.870Z,4.5
2022-09-12T21:02:55.927Z,4.2
2022-09-12T21:05:55.920Z,3.9
2022-09-12T21:08:55.901Z,3.9
2022-09-12T21:11:55.923Z,3.8
2022-09-12T21:14:55.925Z,3.5
2022-09-12T21:17:55.934Z,3.7
2022-09-12T21:20:55.944Z,4
2022-09-12T21:23:56.076Z,3.9
2022-09-12T21:26:56.855Z,4
2022-09-12T21:29:55.980Z,3.7
2022-09-12T21:32:55.983Z,3.8
2022-09-12T21:35:55.995Z,3.5
2022-09-12T21:38:56.010Z,3.7
2022-09-12T21:41:56.130Z,3.7
2022-09-12T21:44:56.025Z,3.6
2022-09-12T21:47:56.044Z,3.5
2022-09-12T21:50:56.049Z,3.8
2022-09-12T21:53:56.061Z,3.7
2022-09-12T21:56:56.076Z,3.9
2022-09-12T21:59:56.110Z,3.7
2022-09-12T22:02:56.094Z,3.6
2022-09-12T22:05:56.101Z,3.7
2022-09-12T22:08:56.112Z,3.9
2022-09-12T22:11:56.131Z,3.8
2022-09-12T22:14:56.128Z,3.8
2022-09-12T22:17:56.161Z,4
2022-09-12T22:20:56.149Z,3.8
2022-09-12T22:23:56.158Z,3.6
2022-09-12T22:26:56.170Z,3.7
2022-09-12T22:29:56.176Z,3.7
2022-09-12T22:32:56.187Z,3.5
2022-09-12T22:35:56.227Z,3.9
2022-09-12T22:38:56.208Z,3.6
2022-09-12T22:41:56.213Z,3.6
2022-09-12T22:44:56.220Z,3.7
2022-09-12T22:47:59.236Z,3.8
2022-09-12T22:50:56.248Z,3.7
2022-09-12T22:53:56.272Z,3.4
2022-09-12T22:56:56.255Z,3.7
2022-09-12T22:59:56.262Z,3.7
2022-09-12T23:02:56.338Z,3.8
2022-09-12T23:05:56.284Z,4
2022-09-12T23:08:56.289Z,3.8
2022-09-12T23:11:56.318Z,3.7
2022-09-12T23:14:56.299Z,3.8
2022-09-12T23:17:56.302Z,3.8
2022-09-12T23:20:56.306Z,3.6
2022-09-12T23:23:56.317Z,3.9
2022-09-12T23:26:56.319Z,3.8
2022-09-12T23:29:56.444Z,3.7
2022-09-12T23:32:56.339Z,3.9
2022-09-12T23:35:56.338Z,3.8
2022-09-12T23:38:56.349Z,3.8
2022-09-12T23:41:56.352Z,3.8
2022-09-12T23:44:56.358Z,3.7
2022-09-12T23:47:56.389Z,3.7
2022-09-12T23:50:56.376Z,3.8
2022-09-12T23:53:56.382Z,3.9
2022-09-12T23:56:56.386Z,4.1
2022-09-12T23:59:56.383Z,4.1
